createdAt,value
2019-01-31T00:01:27.990Z,1.49
2019-01-31T00:04:31.759Z,1.57
2019-01-31T00:07:25.188Z,1.51
2019-01-31T00:10:56.648Z,1.54
2019-01-31T00:13:55.721Z,1.55
2019-01-31T00:17:06.674Z,1.61
2019-01-31T00:20:01.555Z,1.47
2019-01-31T00:23:09.071Z,1.47
2019-01-31T00:26:11.839Z,1.54
2019-01-31T00:29:24.778Z,1.47
2019-01-31T00:32:17.525Z,1.51
2019-01-31T00:35:05.264Z,1.55
2019-01-31T00:38:00.791Z,1.44
2019-01-31T00:40:58.853Z,1.53
2019-01-31T00:44:21.869Z,1.53
2019-01-31T00:47:17.640Z,1.50
2019-01-31T00:50:05.984Z,1.55
2019-01-31T00:53:31.784Z,1.49
2019-01-31T00:56:23.673Z,1.45
2019-01-31T00:59:17.003Z,1.59
2019-01-31T01:02:24.341Z,1.55
2019-01-31T01:05:43.886Z,1.45
2019-01-31T01:08:37.063Z,1.46
2019-01-31T01:11:43.665Z,1.40
2019-01-31T01:14:53.983Z,1.51
2019-01-31T01:18:18.502Z,1.53
2019-01-31T01:21:15.679Z,1.42
2019-01-31T01:24:25.527Z,1.48
2019-01-31T01:27:19.759Z,1.52
2019-01-31T01:30:06.677Z,1.67
2019-01-31T01:33:03.785Z,1.55
2019-01-31T01:36:04.652Z,1.63
2019-01-31T01:39:18.990Z,1.64
2019-01-31T01:42:15.057Z,1.57
2019-01-31T01:45:11.615Z,1.46
2019-01-31T01:48:02.527Z,1.52
2019-01-31T01:51:02.367Z,1.62
2019-01-31T01:53:44.425Z,1.63
2019-01-31T01:56:48.693Z,1.60
2019-01-31T01:59:48.772Z,1.58
2019-01-31T02:02:55.274Z,1.44
2019-01-31T02:05:53.725Z,1.45
2019-01-31T02:09:18.452Z,1.42
2019-01-31T02:12:26.756Z,1.49
2019-01-31T02:15:20.919Z,1.34
2019-01-31T02:18:14.526Z,1.43
2019-01-31T02:21:08.906Z,1.48
2019-01-31T02:24:14.440Z,1.37
2019-01-31T02:27:10.561Z,1.39
2019-01-31T02:30:20.970Z,1.37
2019-01-31T02:33:33.736Z,1.37
2019-01-31T02:36:37.812Z,1.47
2019-01-31T02:40:02.517Z,1.48
2019-01-31T02:43:02.526Z,1.45
2019-01-31T02:46:17.851Z,1.58
2019-01-31T02:49:28.339Z,1.57
2019-01-31T02:52:17.955Z,1.61
2019-01-31T02:55:06.820Z,1.69
2019-01-31T02:58:06.130Z,1.62
2019-01-31T03:00:58.563Z,1.66
2019-01-31T03:04:30.231Z,1.63
2019-01-31T03:07:28.422Z,1.59
2019-01-31T03:10:24.542Z,1.64
2019-01-31T03:13:30.790Z,1.68
2019-01-31T03:16:52.182Z,1.61
2019-01-31T03:20:01.678Z,1.69
2019-01-31T03:23:19.818Z,1.71
2019-01-31T03:26:20.982Z,1.75
2019-01-31T03:29:16.353Z,1.70
2019-01-31T03:32:00.844Z,1.76
2019-01-31T03:35:02.578Z,1.74
2019-01-31T03:38:17.784Z,1.73
2019-01-31T03:41:15.131Z,1.68
2019-01-31T03:44:16.961Z,1.66
2019-01-31T03:47:21.316Z,1.70
2019-01-31T03:50:34.736Z,1.66
2019-01-31T03:53:44.882Z,1.68
2019-01-31T03:56:47.249Z,1.62
2019-01-31T03:59:20.978Z,1.59
2019-01-31T04:02:19.964Z,1.64
2019-01-31T04:05:04.959Z,1.60
2019-01-31T04:07:34.215Z,1.58
2019-01-31T04:10:03.453Z,1.54
2019-01-31T04:12:33.030Z,1.60
2019-01-31T04:15:02.246Z,1.64
2019-01-31T04:17:31.498Z,1.55
2019-01-31T04:20:00.750Z,1.62
2019-01-31T04:22:29.977Z,1.63
2019-01-31T04:24:59.325Z,1.67
2019-01-31T04:27:28.603Z,1.70
2019-01-31T04:29:57.931Z,1.68
2019-01-31T04:32:27.194Z,1.78
2019-01-31T04:34:56.457Z,1.77
2019-01-31T04:37:25.769Z,1.63
2019-01-31T04:39:55.160Z,1.68
2019-01-31T04:42:24.405Z,1.67
2019-01-31T04:44:54.024Z,1.71
2019-01-31T04:47:23.460Z,1.65
2019-01-31T04:49:52.717Z,1.74
2019-01-31T04:52:21.965Z,1.70
2019-01-31T04:54:51.275Z,1.68
2019-01-31T04:57:20.543Z,1.68
2019-01-31T04:59:49.845Z,1.65
2019-01-31T05:02:19.094Z,1.64
2019-01-31T05:04:48.394Z,1.68
2019-01-31T05:07:17.785Z,1.76
2019-01-31T05:09:47.261Z,1.72
2019-01-31T05:12:16.504Z,1.61
2019-01-31T05:14:45.799Z,1.58
2019-01-31T05:17:15.055Z,1.64
2019-01-31T05:19:44.282Z,1.59
2019-01-31T05:22:13.517Z,1.65
2019-01-31T05:24:42.714Z,1.65
2019-01-31T05:27:11.988Z,1.62
2019-01-31T05:29:41.349Z,1.61
2019-01-31T05:32:10.608Z,1.61
2019-01-31T05:34:39.896Z,1.59
2019-01-31T05:37:09.195Z,1.56
2019-01-31T05:39:38.450Z,1.46
2019-01-31T05:42:07.777Z,1.40
2019-01-31T05:44:37.133Z,1.50
2019-01-31T05:47:06.415Z,1.47
2019-01-31T05:49:35.667Z,1.67
2019-01-31T05:52:04.996Z,1.59
2019-01-31T05:54:34.447Z,1.62
2019-01-31T05:57:03.709Z,1.67
2019-01-31T05:59:32.980Z,1.59
2019-01-31T06:02:02.205Z,1.63
2019-01-31T06:04:31.785Z,1.61
2019-01-31T06:07:11.046Z,1.63
2019-01-31T06:09:32.040Z,1.58
2019-01-31T06:12:01.551Z,1.63
2019-01-31T06:14:30.854Z,1.59
2019-01-31T06:17:00.129Z,1.63
2019-01-31T06:19:29.459Z,1.55
2019-01-31T06:21:58.680Z,1.57
2019-01-31T06:24:27.923Z,1.60
2019-01-31T06:26:57.141Z,1.58
2019-01-31T06:29:26.448Z,1.61
2019-01-31T06:31:55.823Z,1.66
2019-01-31T06:34:25.189Z,1.59
2019-01-31T06:36:54.458Z,1.59
2019-01-31T06:39:23.775Z,1.57
2019-01-31T06:41:53.031Z,1.59
2019-01-31T06:44:22.281Z,1.58
2019-01-31T06:46:51.679Z,1.45
2019-01-31T06:49:21.072Z,1.57
2019-01-31T06:51:50.333Z,1.50
2019-01-31T06:54:19.778Z,1.47
2019-01-31T06:56:49.064Z,1.51
2019-01-31T06:59:18.385Z,1.47
2019-01-31T07:01:47.687Z,1.50
2019-01-31T07:04:17.068Z,1.48
2019-01-31T07:06:46.280Z,1.55
2019-01-31T07:09:15.567Z,1.44
2019-01-31T07:11:44.995Z,1.55
2019-01-31T07:14:14.718Z,1.50
2019-01-31T07:16:44.084Z,1.46
2019-01-31T07:19:13.365Z,1.56
2019-01-31T07:21:42.745Z,1.57
2019-01-31T07:24:12.059Z,1.56
2019-01-31T07:29:36.715Z,1.63
2019-01-31T07:32:05.957Z,1.66
2019-01-31T07:35:14.617Z,1.56
2019-01-31T07:37:43.876Z,1.70
2019-01-31T07:40:52.941Z,1.52
2019-01-31T07:43:22.164Z,1.59
2019-01-31T07:45:51.462Z,1.65
2019-01-31T07:51:31.047Z,1.76
2019-01-31T07:54:00.263Z,1.77
2019-01-31T07:56:29.743Z,1.71
2019-01-31T07:58:59.011Z,1.61
2019-01-31T08:01:28.345Z,1.82
2019-01-31T08:04:02.497Z,1.77
2019-01-31T08:06:28.685Z,1.73
2019-01-31T08:08:57.947Z,1.73
2019-01-31T08:11:27.245Z,1.75
2019-01-31T08:13:56.554Z,1.69
2019-01-31T08:16:26.098Z,1.72
2019-01-31T08:18:55.385Z,1.80
2019-01-31T08:21:24.909Z,1.84
2019-01-31T08:23:54.208Z,1.85
2019-01-31T08:26:23.469Z,1.75
2019-01-31T08:28:52.787Z,1.83
2019-01-31T08:31:22.140Z,1.80
2019-01-31T08:33:51.535Z,1.92
2019-01-31T08:36:20.778Z,1.85
2019-01-31T08:38:50.111Z,1.78
2019-01-31T08:41:19.333Z,1.86
2019-01-31T08:43:48.651Z,1.97
2019-01-31T08:46:18.114Z,1.88
2019-01-31T08:48:48.178Z,2.00
2019-01-31T08:51:17.860Z,1.95
2019-01-31T08:53:47.372Z,2.06
2019-01-31T08:56:16.763Z,1.96
2019-01-31T08:58:46.362Z,2.03
2019-01-31T09:01:15.763Z,2.02
2019-01-31T09:03:45.788Z,2.05
2019-01-31T09:06:15.276Z,2.12
2019-01-31T09:08:44.684Z,2.16
2019-01-31T09:11:13.961Z,2.20
2019-01-31T09:13:43.268Z,2.25
2019-01-31T09:16:12.495Z,2.21
2019-01-31T09:18:41.727Z,2.15
2019-01-31T09:21:35.878Z,2.15
2019-01-31T09:24:42.871Z,2.18
2019-01-31T09:28:08.706Z,2.10
2019-01-31T09:31:34.358Z,2.07
2019-01-31T09:34:40.985Z,2.07
2019-01-31T09:38:00.438Z,2.10
2019-01-31T09:40:53.814Z,2.12
2019-01-31T09:44:06.845Z,2.16
2019-01-31T09:47:07.723Z,2.16
2019-01-31T09:50:11.224Z,2.16
2019-01-31T09:53:17.271Z,2.17
2019-01-31T09:56:21.128Z,2.22
2019-01-31T09:59:07.329Z,2.31
2019-01-31T10:02:09.026Z,2.31
2019-01-31T10:04:57.403Z,2.23
2019-01-31T10:07:43.254Z,2.29
2019-01-31T10:10:40.324Z,2.32
2019-01-31T10:14:05.984Z,2.18
2019-01-31T10:16:50.414Z,2.23
2019-01-31T10:19:44.192Z,2.25
2019-01-31T10:22:46.485Z,2.28
2019-01-31T10:25:56.951Z,2.18
2019-01-31T10:29:13.399Z,2.21
2019-01-31T10:32:11.652Z,2.25
2019-01-31T10:35:09.469Z,2.33
2019-01-31T10:38:28.630Z,2.29
2019-01-31T10:41:48.647Z,2.24
2019-01-31T10:44:36.553Z,2.31
2019-01-31T10:47:39.015Z,2.33
2019-01-31T10:50:37.495Z,2.36
2019-01-31T10:53:36.270Z,2.36
2019-01-31T10:56:45.386Z,2.39
2019-01-31T10:59:44.177Z,2.33
2019-01-31T11:02:49.860Z,2.43
2019-01-31T11:06:12.362Z,2.48
2019-01-31T11:09:28.533Z,2.45
2019-01-31T11:12:27.440Z,2.46
2019-01-31T11:15:24.925Z,2.50
2019-01-31T11:18:44.096Z,2.48
2019-01-31T11:21:54.573Z,2.48
2019-01-31T11:24:44.752Z,2.55
2019-01-31T11:27:38.601Z,2.60
2019-01-31T11:30:39.255Z,2.59
2019-01-31T11:33:44.494Z,2.60
2019-01-31T11:36:42.439Z,2.58
2019-01-31T11:39:51.434Z,2.62
2019-01-31T11:43:14.309Z,2.63
2019-01-31T11:46:15.669Z,2.71
2019-01-31T11:49:04.636Z,2.73
2019-01-31T11:52:33.288Z,2.63
2019-01-31T11:55:30.059Z,2.66
2019-01-31T11:58:20.634Z,2.75
2019-01-31T12:00:52.904Z,2.86
2019-01-31T12:04:20.781Z,2.94
2019-01-31T12:06:50.173Z,2.93
2019-01-31T12:09:20.724Z,3.08
2019-01-31T12:11:50.583Z,2.93
2019-01-31T12:14:20.035Z,2.91
2019-01-31T12:16:49.281Z,2.89
2019-01-31T12:19:18.759Z,2.80
2019-01-31T12:21:48.232Z,2.90
2019-01-31T12:24:18.082Z,2.84
2019-01-31T12:26:47.443Z,2.93
2019-01-31T12:29:16.836Z,3.04
2019-01-31T12:31:46.202Z,3.12
2019-01-31T12:34:15.658Z,3.05
2019-01-31T12:36:44.971Z,3.15
2019-01-31T12:39:14.546Z,3.30
2019-01-31T12:41:43.907Z,3.44
2019-01-31T12:44:13.445Z,3.42
2019-01-31T12:46:42.871Z,3.39
2019-01-31T12:49:12.200Z,3.32
2019-01-31T12:51:41.598Z,3.31
2019-01-31T12:54:11.031Z,3.39
2019-01-31T12:56:40.441Z,3.42
2019-01-31T12:59:09.829Z,3.32
2019-01-31T13:01:39.298Z,3.56
2019-01-31T13:04:08.731Z,3.57
2019-01-31T13:06:38.362Z,3.59
2019-01-31T13:10:05.434Z,3.46
2019-01-31T13:12:35.004Z,3.55
2019-01-31T13:15:22.431Z,3.59
2019-01-31T13:17:54.106Z,3.99
2019-01-31T13:20:24.937Z,4.07
2019-01-31T13:22:56.804Z,4.03
2019-01-31T13:25:27.229Z,4.06
2019-01-31T13:27:56.860Z,4.06
2019-01-31T13:30:26.399Z,4.15
2019-01-31T13:32:56.877Z,4.02
2019-01-31T13:35:26.172Z,4.00
2019-01-31T13:37:55.621Z,3.76
2019-01-31T13:40:26.572Z,3.83
2019-01-31T13:42:56.801Z,3.83
2019-01-31T13:45:37.461Z,3.76
2019-01-31T13:48:12.876Z,3.77
2019-01-31T13:50:42.341Z,3.80
2019-01-31T13:53:11.935Z,3.58
2019-01-31T13:56:00.249Z,3.56
2019-01-31T13:58:29.496Z,3.48
2019-01-31T14:00:59.002Z,3.54
2019-01-31T14:06:37.022Z,3.80
2019-01-31T14:09:47.437Z,3.82
2019-01-31T14:12:56.257Z,3.80
2019-01-31T14:16:06.164Z,3.74
2019-01-31T14:19:14.959Z,3.68
2019-01-31T14:21:44.344Z,3.73
2019-01-31T14:24:54.648Z,3.75
2019-01-31T14:28:03.292Z,3.78
2019-01-31T14:31:12.907Z,3.67
2019-01-31T14:34:21.564Z,3.63
2019-01-31T14:36:50.788Z,3.53
2019-01-31T14:39:59.460Z,3.50
2019-01-31T14:45:37.361Z,3.47
2019-01-31T14:53:50.231Z,3.77
2019-01-31T14:56:19.443Z,3.72
2019-01-31T14:59:28.089Z,3.74
2019-01-31T15:04:52.927Z,3.86
2019-01-31T15:07:22.261Z,3.82
2019-01-31T15:12:47.175Z,3.80
2019-01-31T15:15:55.848Z,3.62
2019-01-31T15:21:33.933Z,3.72
2019-01-31T15:24:03.175Z,3.63
2019-01-31T15:26:32.429Z,3.70
2019-01-31T15:29:03.832Z,3.61
2019-01-31T15:35:14.075Z,3.52
2019-01-31T15:37:43.354Z,3.59
2019-01-31T15:40:53.498Z,3.52
2019-01-31T15:43:22.727Z,3.64
2019-01-31T15:45:51.972Z,3.69
2019-01-31T15:54:44.659Z,3.62
2019-01-31T15:57:16.633Z,3.53
2019-01-31T15:59:44.902Z,3.46
2019-01-31T16:02:14.137Z,3.46
2019-01-31T16:04:43.364Z,3.42
2019-01-31T16:13:42.924Z,3.53
2019-01-31T16:16:12.203Z,3.47
2019-01-31T16:21:36.964Z,3.43
2019-01-31T16:30:49.987Z,3.37
2019-01-31T16:36:14.498Z,3.26
2019-01-31T16:38:43.808Z,3.23
2019-01-31T16:44:51.225Z,3.27
2019-01-31T16:47:20.490Z,3.24
2019-01-31T16:49:49.729Z,3.25
2019-01-31T16:52:19.011Z,3.16
2019-01-31T16:58:36.328Z,3.11
2019-01-31T17:01:45.278Z,3.16
2019-01-31T17:04:14.591Z,3.13
2019-01-31T17:06:43.781Z,3.12
2019-01-31T17:09:52.454Z,3.20
2019-01-31T17:12:21.749Z,3.13
2019-01-31T17:14:51.164Z,2.94
2019-01-31T17:17:20.411Z,2.88
2019-01-31T17:20:29.053Z,2.85
2019-01-31T17:26:00.399Z,2.80
2019-01-31T17:34:19.870Z,2.89
2019-01-31T17:39:57.959Z,2.82
2019-01-31T17:43:06.610Z,2.79
2019-01-31T17:45:35.854Z,2.77
2019-01-31T17:48:44.513Z,2.66
2019-01-31T17:54:03.989Z,2.70
2019-01-31T17:56:33.213Z,2.66
2019-01-31T18:04:52.999Z,2.47
2019-01-31T18:07:22.240Z,2.49
2019-01-31T18:09:51.518Z,2.41
2019-01-31T18:12:20.929Z,2.37
2019-01-31T18:14:50.209Z,2.36
2019-01-31T18:17:19.475Z,2.33
2019-01-31T18:20:28.165Z,2.31
2019-01-31T18:22:57.377Z,2.30
2019-01-31T18:25:26.675Z,2.26
2019-01-31T18:27:56.069Z,2.25
2019-01-31T18:31:05.832Z,2.23
2019-01-31T18:34:14.709Z,2.22
2019-01-31T18:36:45.662Z,2.19
2019-01-31T18:39:54.607Z,2.21
2019-01-31T18:42:23.873Z,2.18
2019-01-31T18:44:53.139Z,2.24
2019-01-31T18:47:23.950Z,2.23
2019-01-31T18:49:53.228Z,2.40
2019-01-31T18:55:31.219Z,2.30
2019-01-31T18:58:00.474Z,2.26
2019-01-31T19:01:10.195Z,2.28
2019-01-31T19:04:18.863Z,2.34
2019-01-31T19:06:48.127Z,2.31
2019-01-31T19:12:13.010Z,2.37
2019-01-31T19:20:38.302Z,2.36
2019-01-31T19:23:26.562Z,2.27
2019-01-31T19:26:35.243Z,2.27
2019-01-31T19:32:13.245Z,2.08
2019-01-31T19:34:42.528Z,2.11
2019-01-31T19:38:01.592Z,2.13
2019-01-31T19:40:24.505Z,2.17
2019-01-31T19:43:33.237Z,2.05
2019-01-31T19:46:02.518Z,2.12
2019-01-31T19:48:38.924Z,2.11
2019-01-31T19:51:47.593Z,2.11
2019-01-31T19:54:16.838Z,2.15
2019-01-31T19:56:46.398Z,2.05
2019-01-31T19:59:15.666Z,1.97
2019-01-31T20:01:45.203Z,1.96
2019-01-31T20:07:55.660Z,2.00
2019-01-31T20:10:26.392Z,1.95
2019-01-31T20:12:56.041Z,1.96
2019-01-31T20:16:01.503Z,1.95
2019-01-31T20:18:30.905Z,1.96
2019-01-31T20:21:00.284Z,1.90
2019-01-31T20:24:02.690Z,1.85
2019-01-31T20:26:32.091Z,1.81
2019-01-31T20:29:01.430Z,1.78
2019-01-31T20:31:30.831Z,1.74
2019-01-31T20:34:00.308Z,1.76
2019-01-31T20:36:29.856Z,1.69
2019-01-31T20:38:59.339Z,1.67
2019-01-31T20:42:07.537Z,1.76
2019-01-31T20:44:37.043Z,1.72
2019-01-31T20:47:54.484Z,1.62
2019-01-31T20:50:29.102Z,1.48
2019-01-31T20:52:58.871Z,1.39
2019-01-31T20:55:28.283Z,1.33
2019-01-31T20:57:57.945Z,1.38
2019-01-31T21:00:54.514Z,1.26
2019-01-31T21:03:24.835Z,1.27
2019-01-31T21:05:54.364Z,1.22
2019-01-31T21:08:23.889Z,1.11
2019-01-31T21:10:53.389Z,1.19
2019-01-31T21:13:22.956Z,1.18
2019-01-31T21:15:53.003Z,1.06
2019-01-31T21:18:22.728Z,1.02
2019-01-31T21:20:52.143Z,1.10
2019-01-31T21:23:21.515Z,1.06
2019-01-31T21:25:50.811Z,0.93
2019-01-31T21:28:20.073Z,0.97
2019-01-31T21:30:49.543Z,0.89
2019-01-31T21:33:19.001Z,0.93
2019-01-31T21:35:48.399Z,0.89
2019-01-31T21:38:17.735Z,0.85
2019-01-31T21:40:47.028Z,0.84
2019-01-31T21:43:16.365Z,0.88
2019-01-31T21:45:45.688Z,0.82
2019-01-31T21:48:15.064Z,0.79
2019-01-31T21:50:44.436Z,0.78
2019-01-31T21:53:13.963Z,0.80
2019-01-31T21:55:43.259Z,0.81
2019-01-31T21:58:12.693Z,0.76
2019-01-31T22:00:41.961Z,0.72
2019-01-31T22:03:11.631Z,0.71
2019-01-31T22:05:40.881Z,0.65
2019-01-31T22:08:10.202Z,0.71
2019-01-31T22:10:39.561Z,0.73
2019-01-31T22:13:08.972Z,0.69
2019-01-31T22:15:38.570Z,0.58
2019-01-31T22:18:17.995Z,0.50
2019-01-31T22:20:47.509Z,0.56
2019-01-31T22:23:16.923Z,0.52
2019-01-31T22:25:46.166Z,0.55
2019-01-31T22:28:15.518Z,0.52
2019-01-31T22:30:44.809Z,0.49
2019-01-31T22:33:14.122Z,0.46
2019-01-31T22:35:43.374Z,0.49
2019-01-31T22:38:12.798Z,0.49
2019-01-31T22:40:42.254Z,0.47
2019-01-31T22:43:11.549Z,0.47
2019-01-31T22:45:40.926Z,0.42
2019-01-31T22:48:10.211Z,0.39
2019-01-31T22:50:39.550Z,0.37
2019-01-31T22:53:08.827Z,0.44
2019-01-31T22:55:38.351Z,0.38
2019-01-31T22:58:08.695Z,0.33
2019-01-31T23:01:26.740Z,0.34
2019-01-31T23:03:56.140Z,0.36
2019-01-31T23:06:25.948Z,0.36
2019-01-31T23:08:55.204Z,0.42
2019-01-31T23:11:24.843Z,0.36
2019-01-31T23:13:54.144Z,0.35
2019-01-31T23:16:23.415Z,0.30
2019-01-31T23:18:52.743Z,0.26
2019-01-31T23:21:22.023Z,0.24
2019-01-31T23:23:51.367Z,0.25
2019-01-31T23:26:20.746Z,0.22
2019-01-31T23:28:50.149Z,0.22
2019-01-31T23:31:19.376Z,0.22
2019-01-31T23:33:48.656Z,0.14
2019-01-31T23:36:18.025Z,0.18
2019-01-31T23:38:47.303Z,0.16
2019-01-31T23:41:16.588Z,0.16
2019-01-31T23:43:45.810Z,0.17
2019-01-31T23:46:15.127Z,0.16
2019-01-31T23:48:44.375Z,0.17
2019-01-31T23:51:13.604Z,0.17
2019-01-31T23:53:42.946Z,0.14
2019-01-31T23:56:12.247Z,0.11
2019-01-31T23:58:41.548Z,0.10
